Port Edward, Canada
Current Conditions -  °F | °C
As of 11:00 PM on Thursday 23 Oct 2014 (Local Time) from CYPR Reporting Station
Scattered Clouds Scattered Clouds  
Wind Chill: 40°   Ceiling: Unl
Heat Index: 45°   Visibility: 9mi
Dew Point: 41°   Wind: 8mph
Humidity: 87%   Direction: 130°SE
Pressure: 29.77"   Gusts: NA
Location:  54.22°N, 130.29°W
Report Text: CYPR 240600Z AUTO 13007KT 9SM SCT180 SCT200 07/05 A2977 RMK SLP081
Loading
Personal Weather Stations






























Interactive Weather Map
Tropical Storm Tracking
New forecast layout! Learn more

10-Day Weather Forecast

Advertisements
Track Severe Weather on mobile